Time;durP1;ratioP1;P1;durP2;ratioP2;P2;SDS_P1;SDS_P2;PMS_P1;PMS_P2;Temp;Humidity;BMP_temperature;BMP_pressure;BME280_temperature;BME280_humidity;BME280_pressure;Samples;Min_cycle;Max_cycle;Signal;HPM_P1;HPM_P2
2022/06/19 00:01:16;;;;;;;11.40;5.55;;;;;;;18.44;82.30;95367.38;4987864;28;20102;-82
2022/06/19 00:03:45;;;;;;;9.73;5.70;;;;;;;18.38;82.16;95353.47;4988932;28;20039;-82
2022/06/19 00:06:11;;;;;;;11.70;5.40;;;;;;;18.24;84.93;95353.69;4988641;28;20042;-82
2022/06/19 00:08:37;;;;;;;10.02;5.65;;;;;;;18.14;83.40;95343.41;4988485;28;20198;-82
2022/06/19 00:11:04;;;;;;;12.48;5.95;;;;;;;18.14;83.34;95338.09;4989121;28;20045;-83
2022/06/19 00:13:30;;;;;;;19.08;5.60;;;;;;;18.16;83.11;95334.00;4989253;28;20069;-82
2022/06/19 00:15:55;;;;;;;9.80;5.70;;;;;;;18.05;83.53;95322.16;4992306;28;20073;-82
2022/06/19 00:18:21;;;;;;;12.20;6.15;;;;;;;18.27;82.08;95328.28;4993729;28;20125;-82
2022/06/19 00:20:46;;;;;;;13.18;5.93;;;;;;;18.21;81.13;95317.06;4991998;28;20109;-82
2022/06/19 00:23:12;;;;;;;13.13;6.15;;;;;;;18.29;82.02;95323.44;4992988;28;20108;-82
2022/06/19 00:25:38;;;;;;;11.95;6.88;;;;;;;18.33;81.56;95305.69;4994660;28;20042;-82
2022/06/19 00:28:05;;;;;;;18.00;6.32;;;;;;;18.28;81.30;95305.91;4983620;28;20047;-82
2022/06/19 00:30:31;;;;;;;13.77;6.35;;;;;;;18.27;82.61;95299.00;4991287;28;20121;-82
2022/06/19 00:32:58;;;;;;;16.92;6.47;;;;;;;18.37;80.19;95293.28;4991847;28;20046;-81
2022/06/19 00:35:26;;;;;;;13.18;6.22;;;;;;;18.40;80.31;95292.63;4992117;28;20444;-81
2022/06/19 00:37:51;;;;;;;12.43;5.78;;;;;;;18.36;79.30;95286.41;4989637;28;20125;-81
2022/06/19 00:40:17;;;;;;;11.98;5.75;;;;;;;18.36;79.56;95286.41;4992641;28;20501;-81
2022/06/19 00:42:42;;;;;;;11.35;5.95;;;;;;;18.29;78.77;95278.94;4992675;28;20039;-81
2022/06/19 00:45:26;;;;;;;15.32;5.38;;;;;;;18.31;80.20;95270.63;4991529;28;20050;-82
2022/06/19 00:47:52;;;;;;;15.48;5.78;;;;;;;18.35;79.07;95258.22;4992824;28;20042;-82
2022/06/19 00:50:30;;;;;;;13.07;5.85;;;;;;;18.32;78.71;95248.22;4991595;28;20382;-82
2022/06/19 00:52:56;;;;;;;15.45;5.40;;;;;;;18.34;78.79;95256.66;4991881;28;20038;-82
2022/06/19 00:55:26;;;;;;;13.20;5.28;;;;;;;18.29;79.10;95238.97;4991662;28;20053;-82
2022/06/19 00:58:16;;;;;;;12.40;4.70;;;;;;;18.31;78.54;95241.31;4992555;28;20088;-82
2022/06/19 01:00:46;;;;;;;12.82;5.22;;;;;;;18.28;77.97;95250.72;4992344;28;20046;-82
2022/06/19 01:03:20;;;;;;;16.35;5.07;;;;;;;18.21;78.60;95249.69;4991081;28;20061;-82
2022/06/19 01:05:47;;;;;;;16.92;6.90;;;;;;;18.13;79.22;95252.09;4991318;28;20039;-82
2022/06/19 01:08:13;;;;;;;11.93;5.32;;;;;;;18.01;79.49;95254.66;4992055;28;20049;-82
2022/06/19 01:10:42;;;;;;;16.48;5.78;;;;;;;17.95;80.44;95255.97;4981695;28;20038;-82
2022/06/19 01:13:10;;;;;;;11.60;5.35;;;;;;;17.86;80.74;95257.84;4985187;28;20034;-82
2022/06/19 01:15:39;;;;;;;16.67;5.60;;;;;;;17.80;81.12;95239.44;4992630;28;20177;-82
2022/06/19 01:18:07;;;;;;;16.05;5.55;;;;;;;17.83;80.71;95262.72;4991220;28;20046;-82
2022/06/19 01:20:35;;;;;;;14.38;5.15;;;;;;;17.80;79.98;95255.41;4989734;28;20488;-82
2022/06/19 01:23:22;;;;;;;13.57;4.75;;;;;;;17.88;80.46;95267.09;4987712;28;20105;-82
2022/06/19 01:25:51;;;;;;;11.50;5.40;;;;;;;17.84;80.19;95243.00;4991792;28;20109;-82
2022/06/19 01:31:08;;;;;;;17.92;6.00;;;;;;;17.71;81.81;95244.00;4988580;28;20088;-83
2022/06/19 01:33:45;;;;;;;18.60;4.95;;;;;;;17.55;82.01;95235.78;4991614;28;20412;-82
2022/06/19 01:36:13;;;;;;;14.82;5.88;;;;;;;17.27;83.75;95222.94;4995914;28;20038;-82
2022/06/19 01:38:39;;;;;;;14.90;4.68;;;;;;;17.60;81.55;95234.84;4990124;28;20042;-82
2022/06/19 01:41:12;;;;;;;16.13;5.20;;;;;;;17.62;81.07;95216.66;4991156;28;20503;-83
2022/06/19 01:43:38;;;;;;;13.43;4.97;;;;;;;17.70;81.05;95212.38;4980305;28;20051;-83
2022/06/19 01:46:04;;;;;;;13.77;5.30;;;;;;;17.65;80.52;95194.72;4990167;28;20049;-82
2022/06/19 01:48:31;;;;;;;17.02;5.80;;;;;;;17.72;80.38;95195.00;4991177;28;20038;-82
2022/06/19 01:51:00;;;;;;;16.73;5.30;;;;;;;17.76;79.31;95195.94;4990599;28;20551;-82
2022/06/19 01:53:39;;;;;;;14.57;4.97;;;;;;;17.67;79.27;95182.69;4990500;28;20073;-82
2022/06/19 01:56:07;;;;;;;11.75;5.15;;;;;;;17.71;80.45;95187.34;4991988;28;20045;-82
2022/06/19 01:58:34;;;;;;;17.63;5.72;;;;;;;17.70;79.97;95181.25;4990690;28;20668;-82
2022/06/19 02:01:04;;;;;;;22.90;5.60;;;;;;;17.68;80.73;95175.47;4991593;28;20496;-82
2022/06/19 02:03:37;;;;;;;21.80;5.57;;;;;;;17.71;81.10;95172.16;4991970;28;20042;-83
2022/06/19 02:06:04;;;;;;;15.00;5.57;;;;;;;17.69;81.43;95168.28;4979094;28;20039;-82
2022/06/19 02:08:32;;;;;;;15.98;5.55;;;;;;;17.69;81.51;95168.28;4989755;28;20440;-82
2022/06/19 02:10:59;;;;;;;20.75;5.97;;;;;;;17.66;82.21;95164.38;4991819;28;20042;-83
2022/06/19 02:13:25;;;;;;;12.32;6.15;;;;;;;17.64;82.13;95161.25;4991526;28;20046;-81
2022/06/19 02:15:53;;;;;;;14.52;5.70;;;;;;;17.55;82.61;95153.31;4990598;28;20215;-82
2022/06/19 02:18:23;;;;;;;12.32;5.75;;;;;;;17.55;82.72;95149.88;4989886;28;20058;-82
2022/06/19 02:20:51;;;;;;;12.15;6.00;;;;;;;17.59;83.10;95146.25;4990172;28;20050;-82
2022/06/19 02:23:25;;;;;;;16.58;5.75;;;;;;;17.56;83.29;95146.13;4991363;28;20046;-82
2022/06/19 02:25:51;;;;;;;;;;;;;;;17.44;83.71;95139.63;4991016;28;20038;-82
2022/06/19 02:28:18;;;;;;;16.67;6.00;;;;;;;17.37;84.31;95142.00;4991260;28;19922;-82
2022/06/19 02:30:44;;;;;;;12.02;5.75;;;;;;;17.40;83.68;95141.38;4990288;28;20045;-82
2022/06/19 02:33:14;;;;;;;17.17;6.25;;;;;;;17.38;83.92;95135.56;4991419;28;20041;-82
2022/06/19 02:35:40;;;;;;;19.20;6.30;;;;;;;17.40;84.63;95136.03;4991337;28;20085;-81
2022/06/19 02:38:07;;;;;;;18.88;6.88;;;;;;;17.34;84.69;95132.03;4990394;28;20475;-83
2022/06/19 02:40:45;;;;;;;15.88;6.43;;;;;;;17.21;85.08;95122.38;4990049;28;20100;-82
2022/06/19 02:43:17;;;;;;;20.10;6.88;;;;;;;17.23;85.37;95128.16;4989687;28;20042;-83
2022/06/19 02:45:42;;;;;;;19.00;6.25;;;;;;;17.16;85.86;95120.69;4990939;28;20691;-83
2022/06/19 02:48:19;;;;;;;19.17;6.55;;;;;;;16.94;86.04;95105.78;4990821;28;20046;-83
2022/06/19 02:50:45;;;;;;;15.65;6.25;;;;;;;16.97;87.00;95119.19;4995922;28;20093;-83
2022/06/19 02:53:10;;;;;;;21.85;6.40;;;;;;;17.01;86.15;95111.38;4989854;28;20042;-83
2022/06/19 02:55:36;;;;;;;16.95;6.22;;;;;;;17.02;86.32;95110.25;4989421;28;20150;-83
2022/06/19 02:58:03;;;;;;;15.07;5.88;;;;;;;16.97;86.59;95107.78;4990845;28;20042;-82
2022/06/19 03:00:28;;;;;;;17.13;6.40;;;;;;;16.94;86.26;95100.47;4988279;28;20046;-83
2022/06/19 03:03:04;;;;;;;16.08;6.10;;;;;;;16.89;86.69;95106.72;4990913;28;20045;-83
2022/06/19 03:05:30;;;;;;;17.80;6.70;;;;;;;16.90;86.21;95102.19;4990426;28;20043;-82
2022/06/19 03:07:56;;;;;;;20.65;6.32;;;;;;;16.90;86.31;95104.84;4989321;28;20047;-83
2022/06/19 03:10:21;;;;;;;16.25;6.35;;;;;;;16.82;86.27;95097.66;4987434;28;20047;-83
2022/06/19 03:12:47;;;;;;;22.60;6.70;;;;;;;16.75;86.95;95117.53;4990484;28;20046;-83
2022/06/19 03:15:14;;;;;;;18.13;6.38;;;;;;;16.84;86.83;95124.69;4987624;28;20532;-83
2022/06/19 03:17:39;;;;;;;17.05;5.70;;;;;;;16.82;87.49;95117.03;4989444;28;20070;-83
2022/06/19 03:20:07;;;;;;;19.80;6.75;;;;;;;16.91;86.93;95125.00;4989578;28;20507;-82
2022/06/19 03:22:32;;;;;;;23.58;6.28;;;;;;;16.79;88.00;95129.09;4990719;28;20095;-83
2022/06/19 03:24:58;;;;;;;15.65;6.10;;;;;;;16.68;88.65;95122.56;4990634;28;20050;-81
2022/06/19 03:27:23;;;;;;;18.58;5.93;;;;;;;16.51;88.86;95122.63;4993656;28;20042;-83
2022/06/19 03:29:49;;;;;;;15.70;6.22;;;;;;;16.39;90.86;95139.19;4993059;28;20034;-83
2022/06/19 03:32:15;;;;;;;14.52;6.07;;;;;;;16.42;91.20;95144.66;4991958;28;20042;-83
2022/06/19 03:34:42;;;;;;;17.58;7.10;;;;;;;16.39;92.54;95136.53;4993044;28;20555;-83
2022/06/19 03:37:08;;;;;;;15.18;5.63;;;;;;;16.34;92.66;95126.84;4992525;28;20088;-83
2022/06/19 03:39:34;;;;;;;17.85;6.22;;;;;;;16.35;93.05;95127.63;4993409;28;20101;-83
2022/06/19 03:42:00;;;;;;;15.05;6.38;;;;;;;16.29;92.94;95127.00;4994120;28;20042;-82
2022/06/19 03:44:26;;;;;;;20.58;6.43;;;;;;;16.23;92.68;95118.47;4993036;28;20077;-83
2022/06/19 03:46:52;;;;;;;13.90;6.93;;;;;;;16.33;91.60;95130.59;4993941;28;20047;-84
2022/06/19 03:49:17;;;;;;;19.33;6.85;;;;;;;16.29;91.89;95124.34;4990085;28;20042;-81
2022/06/19 03:51:43;;;;;;;15.80;6.13;;;;;;;16.34;91.44;95118.91;4984876;28;20046;-81
2022/06/19 03:54:09;;;;;;;12.55;6.15;;;;;;;16.42;90.79;95126.06;4990434;28;20053;-82
2022/06/19 03:56:35;;;;;;;16.00;5.97;;;;;;;16.41;90.10;95119.19;4990872;28;20050;-82
2022/06/19 03:59:01;;;;;;;17.42;6.35;;;;;;;16.52;89.90;95118.84;4990932;28;20042;-82
2022/06/19 04:01:34;;;;;;;17.85;6.45;;;;;;;16.54;89.27;95122.00;4992176;28;20058;-83
2022/06/19 04:04:01;;;;;;;17.00;6.07;;;;;;;16.62;89.05;95129.13;4992410;28;20047;-82
2022/06/19 04:06:30;;;;;;;24.45;6.30;;;;;;;16.65;88.35;95122.41;4992121;28;20046;-82
2022/06/19 04:08:57;;;;;;;15.27;5.57;;;;;;;16.69;88.12;95115.38;4989980;28;20062;-82
2022/06/19 04:11:25;;;;;;;19.17;6.05;;;;;;;16.76;87.89;95124.41;4992342;28;20073;-82
2022/06/19 04:13:53;;;;;;;24.40;6.80;;;;;;;16.79;87.44;95115.00;4991221;28;20050;-82
2022/06/19 04:16:27;;;;;;;26.45;5.80;;;;;;;16.84;87.23;95119.38;4991169;28;20035;-82
2022/06/19 04:18:54;;;;;;;17.50;5.75;;;;;;;16.86;86.80;95117.19;4991980;28;20054;-82
2022/06/19 04:21:22;;;;;;;19.85;5.82;;;;;;;16.87;87.26;95124.06;4989658;28;20176;-82
2022/06/19 04:23:51;;;;;;;14.25;5.43;;;;;;;16.92;87.33;95110.63;4991269;28;20078;-81
2022/06/19 04:26:19;;;;;;;18.08;5.78;;;;;;;16.88;86.52;95110.50;4990445;28;20110;-82
2022/06/19 04:28:44;;;;;;;19.90;5.82;;;;;;;16.98;85.64;95104.03;4992220;28;20104;-82
2022/06/19 04:31:10;;;;;;;20.65;6.10;;;;;;;17.08;86.39;95108.19;4991828;28;20034;-82
2022/06/19 04:33:38;;;;;;;15.88;5.50;;;;;;;17.08;85.38;95103.69;4991086;28;20042;-82
2022/06/19 04:36:14;;;;;;;21.00;5.90;;;;;;;17.18;85.27;95112.38;4988986;28;20128;-82
2022/06/19 04:38:42;;;;;;;23.48;6.47;;;;;;;17.25;84.38;95112.66;4986627;28;20058;-82
2022/06/19 04:41:16;;;;;;;28.30;6.05;;;;;;;17.33;84.79;95114.50;4991044;28;20062;-83
2022/06/19 04:43:42;;;;;;;16.38;5.38;;;;;;;17.45;82.91;95127.84;4985198;28;20444;-82
2022/06/19 04:46:08;;;;;;;22.08;6.10;;;;;;;17.57;82.59;95118.41;4992613;28;20104;-83
2022/06/19 04:48:34;;;;;;;19.80;6.03;;;;;;;17.63;85.68;95127.78;4991945;28;20043;-83
2022/06/19 04:51:00;;;;;;;18.35;5.68;;;;;;;17.48;87.45;95132.56;4992965;28;20042;-82
2022/06/19 04:53:26;;;;;;;17.60;6.07;;;;;;;17.42;86.48;95125.84;4990677;28;20041;-83
2022/06/19 04:55:51;;;;;;;22.67;6.43;;;;;;;17.55;86.07;95128.59;4991573;28;20046;-83
2022/06/19 04:58:22;;;;;;;15.52;5.68;;;;;;;17.57;86.36;95121.06;4990916;28;20050;-84
2022/06/19 05:00:49;;;;;;;15.65;5.63;;;;;;;17.67;86.49;95124.13;4995632;28;20043;-83
2022/06/19 05:03:15;;;;;;;21.00;6.03;;;;;;;17.64;88.09;95129.31;5011837;28;20413;-82
2022/06/19 05:05:41;;;;;;;22.20;6.30;;;;;;;17.67;88.81;95129.47;4995256;28;20042;-82
2022/06/19 05:08:06;;;;;;;20.85;6.07;;;;;;;17.78;87.94;95129.84;5002838;28;20069;-82
2022/06/19 05:10:32;;;;;;;24.10;5.60;;;;;;;18.17;82.36;95124.38;5002764;28;20096;-82
2022/06/19 05:12:57;;;;;;;23.75;5.60;;;;;;;18.40;79.99;95126.69;4988526;28;20057;-82
2022/06/19 05:15:23;;;;;;;23.35;6.10;;;;;;;18.56;79.32;95129.50;4991728;28;20049;-82
2022/06/19 05:17:49;;;;;;;18.85;5.47;;;;;;;18.85;77.85;95129.34;4992717;28;20459;-82
2022/06/19 05:20:15;;;;;;;20.90;5.60;;;;;;;19.00;76.45;95127.16;4990834;28;20046;-83
2022/06/19 05:22:41;;;;;;;21.08;5.82;;;;;;;19.11;75.81;95128.28;4992363;28;20034;-82
2022/06/19 05:25:08;;;;;;;22.83;5.93;;;;;;;19.11;76.62;95122.97;4992605;28;20066;-83
2022/06/19 05:27:40;;;;;;;18.35;5.30;;;;;;;19.29;74.79;95128.06;4992240;28;20046;-83
2022/06/19 05:30:08;;;;;;;24.73;5.35;;;;;;;19.42;73.14;95118.94;4989956;28;20065;-83
2022/06/19 05:32:34;;;;;;;30.45;5.68;;;;;;;19.58;73.46;95118.25;4990525;28;20110;-83
2022/06/19 05:34:59;;;;;;;20.73;5.50;;;;;;;19.72;73.48;95127.47;4991956;28;20065;-82
2022/06/19 05:37:25;;;;;;;26.70;6.85;;;;;;;19.87;71.59;95126.00;4991155;28;20039;-83
2022/06/19 05:39:51;;;;;;;22.83;6.50;;;;;;;20.03;68.61;95127.97;4987275;28;20081;-83
2022/06/19 05:42:17;;;;;;;20.02;5.22;;;;;;;20.18;68.30;95124.56;4983293;28;20481;-82
2022/06/19 05:44:42;;;;;;;30.45;5.65;;;;;;;20.37;67.68;95115.13;4989970;28;20092;-83
2022/06/19 05:47:08;;;;;;;23.85;5.65;;;;;;;20.47;67.65;95116.53;4990831;28;20030;-83
2022/06/19 05:49:34;;;;;;;23.13;5.78;;;;;;;20.71;66.09;95118.31;4987253;28;20050;-83
2022/06/19 05:52:12;;;;;;;22.55;5.75;;;;;;;20.83;68.56;95115.56;4986208;28;20398;-82
2022/06/19 05:54:37;;;;;;;23.08;5.78;;;;;;;20.86;67.82;95114.88;4989921;28;20100;-83
2022/06/19 05:57:03;;;;;;;34.80;6.95;;;;;;;20.98;66.29;95110.56;4992132;28;20046;-83
2022/06/19 05:59:28;;;;;;;25.23;5.63;;;;;;;21.16;66.89;95106.41;4991915;28;20052;-82
2022/06/19 06:01:54;;;;;;;27.13;6.57;;;;;;;21.23;67.02;95111.94;4994188;28;20069;-83
2022/06/19 06:04:19;;;;;;;22.23;6.05;;;;;;;21.35;65.97;95112.94;4990727;28;20358;-83
2022/06/19 06:06:45;;;;;;;14.73;4.97;;;;;;;21.60;65.70;95114.28;4988795;28;20046;-83
2022/06/19 06:09:13;;;;;;;20.10;5.72;;;;;;;21.66;67.07;95114.03;4990173;28;20045;-84
2022/06/19 06:11:39;;;;;;;28.10;6.40;;;;;;;21.75;66.41;95095.84;4990335;28;20494;-84
2022/06/19 06:14:04;;;;;;;27.33;6.13;;;;;;;21.75;65.64;95109.22;4989599;28;20049;-83
2022/06/19 06:16:30;;;;;;;27.63;6.53;;;;;;;21.89;64.90;95109.53;4991227;28;20046;-82
2022/06/19 06:18:55;;;;;;;27.67;6.05;;;;;;;21.94;64.89;95111.16;4989280;28;20511;-82
2022/06/19 06:21:23;;;;;;;24.92;6.40;;;;;;;22.17;63.36;95113.91;4990756;28;20471;-82
2022/06/19 06:23:49;;;;;;;19.63;5.70;;;;;;;22.36;62.63;95117.75;4989035;28;20038;-82
2022/06/19 06:26:18;;;;;;;24.35;5.70;;;;;;;22.18;64.50;95126.16;4991178;28;20042;-82
2022/06/19 06:28:47;;;;;;;28.45;5.70;;;;;;;22.36;63.87;95120.41;4989086;28;20040;-82
2022/06/19 06:31:13;;;;;;;27.40;6.03;;;;;;;22.74;60.95;95129.50;4990963;28;20046;-82
2022/06/19 06:33:39;;;;;;;26.27;6.22;;;;;;;23.10;57.93;95130.09;4990063;28;20035;-82
2022/06/19 06:36:06;;;;;;;32.55;5.97;;;;;;;23.43;55.51;95131.41;4989873;28;20117;-82
2022/06/19 06:38:32;;;;;;;21.17;6.45;;;;;;;23.68;54.49;95132.53;4989143;28;20058;-83
2022/06/19 06:40:57;;;;;;;25.20;6.55;;;;;;;23.79;54.26;95139.94;4989510;28;20253;-83
2022/06/19 06:43:23;;;;;;;24.38;6.13;;;;;;;23.76;54.03;95143.38;4983502;28;20038;-82
2022/06/19 06:45:49;;;;;;;36.80;6.50;;;;;;;23.95;53.96;95145.19;4990437;28;20085;-83
2022/06/19 06:48:16;;;;;;;17.98;5.65;;;;;;;24.12;51.97;95147.34;4990627;28;20440;-83
2022/06/19 06:50:42;;;;;;;27.13;5.97;;;;;;;24.13;51.77;95140.03;4987482;28;20124;-83
2022/06/19 06:53:09;;;;;;;29.23;6.13;;;;;;;24.32;53.07;95142.56;4986235;28;20069;-83
2022/06/19 06:55:39;;;;;;;25.65;5.43;;;;;;;24.42;52.03;95140.34;4989446;28;20496;-83
2022/06/19 06:58:04;;;;;;;29.63;6.53;;;;;;;24.47;51.88;95131.97;4988562;28;20042;-82
2022/06/19 07:00:30;;;;;;;22.45;5.43;;;;;;;24.32;53.11;95133.72;4987814;28;20046;-84
2022/06/19 07:02:55;;;;;;;26.15;5.53;;;;;;;24.45;52.94;95128.88;4990285;28;20113;-80
2022/06/19 07:05:21;;;;;;;31.73;6.20;;;;;;;24.69;51.80;95128.38;4989162;28;20500;-79
2022/06/19 07:07:47;;;;;;;19.48;5.65;;;;;;;24.77;52.46;95131.13;4988044;28;20042;-79
2022/06/19 07:10:12;;;;;;;27.40;6.13;;;;;;;24.81;53.18;95137.31;4989891;28;20042;-84
2022/06/19 07:12:39;;;;;;;24.20;6.05;;;;;;;24.96;53.20;95136.31;4988433;28;20492;-82
2022/06/19 07:15:05;;;;;;;21.13;5.78;;;;;;;25.03;51.51;95124.84;4989444;28;20042;-82
2022/06/19 07:17:30;;;;;;;27.55;6.43;;;;;;;25.27;51.52;95123.50;4990757;28;20034;-84
2022/06/19 07:19:56;;;;;;;31.30;6.18;;;;;;;25.41;52.21;95131.69;4989365;28;20046;-81
2022/06/19 07:22:21;;;;;;;23.92;5.53;;;;;;;25.54;51.33;95128.69;4990032;28;20097;-82
2022/06/19 07:24:47;;;;;;;28.60;5.95;;;;;;;25.56;51.86;95131.78;4988397;28;20100;-83
2022/06/19 07:27:13;;;;;;;27.75;6.13;;;;;;;25.54;53.09;95126.78;4989420;28;20706;-82
2022/06/19 07:29:41;;;;;;;21.92;5.75;;;;;;;25.64;51.38;95127.97;4987763;28;20038;-82
2022/06/19 07:32:07;;;;;;;31.02;5.95;;;;;;;25.92;51.04;95119.25;4989347;28;20053;-82
2022/06/19 07:34:32;;;;;;;24.77;6.10;;;;;;;26.06;50.56;95115.91;4988577;28;20130;-80
2022/06/19 07:36:57;;;;;;;25.27;7.15;;;;;;;26.23;49.45;95116.34;4989378;28;20050;-81
2022/06/19 07:39:23;;;;;;;22.40;6.15;;;;;;;26.27;50.12;95117.13;4988072;28;20460;-83
2022/06/19 07:41:48;;;;;;;28.67;6.55;;;;;;;26.47;48.85;95114.88;4987670;28;20112;-84
2022/06/19 07:44:14;;;;;;;29.05;6.18;;;;;;;26.50;50.46;95113.34;4980964;28;20081;-83
2022/06/19 07:50:09;;;;;;;21.48;5.60;;;;;;;26.72;49.34;95120.34;4989484;28;20049;-83
2022/06/19 07:52:11;;;;;;;33.00;6.25;;;;;;;27.20;46.01;95116.50;4989544;28;20466;-82
2022/06/19 07:54:37;;;;;;;21.05;6.30;;;;;;;27.29;46.19;95110.72;4988483;28;20101;-86
2022/06/19 07:57:02;;;;;;;27.73;6.40;;;;;;;27.30;47.28;95109.56;4987889;28;20093;-82
2022/06/19 07:59:28;;;;;;;19.60;6.30;;;;;;;27.45;45.84;95108.38;4989937;28;20054;-82
2022/06/19 08:01:53;;;;;;;28.25;5.95;;;;;;;27.68;45.26;95109.88;4987528;28;20117;-85
2022/06/19 08:04:19;;;;;;;28.35;6.97;;;;;;;27.75;45.74;95117.97;4989772;28;20046;-86
2022/06/19 08:06:44;;;;;;;21.60;6.97;;;;;;;27.87;45.13;95116.81;4990135;28;20401;-81
2022/06/19 08:09:10;;;;;;;25.83;6.00;;;;;;;27.90;42.59;95112.53;4992620;28;20066;-86
2022/06/19 08:11:36;;;;;;;27.38;6.35;;;;;;;28.02;42.56;95114.09;4990871;28;20042;-85
2022/06/19 08:14:02;;;;;;;21.15;5.90;;;;;;;28.07;40.38;95113.66;4991465;28;20445;-84
2022/06/19 08:16:27;;;;;;;22.50;5.90;;;;;;;28.17;41.02;95116.34;4992375;28;20097;-86
2022/06/19 08:18:52;;;;;;;24.13;5.90;;;;;;;28.22;41.27;95127.91;4997958;28;20408;-87
2022/06/19 08:21:18;;;;;;;34.95;7.07;;;;;;;28.06;43.35;95131.84;4992078;28;20420;-86
2022/06/19 08:23:44;;;;;;;20.88;6.13;;;;;;;27.88;42.82;95115.63;4993467;28;20038;-86
2022/06/19 08:26:09;;;;;;;23.70;6.95;;;;;;;28.30;41.32;95129.41;4991189;28;20458;-84
2022/06/19 08:28:42;;;;;;;35.33;6.90;;;;;;;28.17;41.65;95129.84;4993531;28;20436;-87
2022/06/19 08:31:07;;;;;;;27.88;5.88;;;;;;;28.11;42.57;95123.28;4991988;28;20045;-84
2022/06/19 08:33:33;;;;;;;26.88;6.88;;;;;;;28.22;43.01;95127.91;4989792;28;20035;-86
2022/06/19 08:36:02;;;;;;;29.13;6.45;;;;;;;28.42;41.82;95120.09;4991407;28;20509;-86
2022/06/19 08:38:33;;;;;;;22.80;6.70;;;;;;;28.36;42.29;95122.44;4991388;28;20057;-87
2022/06/19 08:41:29;;;;;;;25.15;8.57;;;;;;;28.44;41.76;95123.91;4984360;28;20701;-85
2022/06/19 08:44:22;;;;;;;30.23;6.95;;;;;;;28.71;40.37;95115.28;4987691;28;20038;-83
2022/06/19 08:47:12;;;;;;;36.47;10.85;;;;;;;28.64;41.83;95120.75;4986415;28;20042;-83
2022/06/19 08:49:44;;;;;;;32.38;11.02;;;;;;;28.42;42.31;95112.72;4988632;28;20499;-81
2022/06/19 08:52:49;;;;;;;31.58;7.18;;;;;;;28.50;42.88;95106.13;4990103;28;20093;-85
2022/06/19 08:55:40;;;;;;;24.10;6.47;;;;;;;28.70;42.45;95119.16;4967265;28;20292;-81
2022/06/19 08:58:21;;;;;;;21.48;6.63;;;;;;;28.65;40.91;95111.47;4995076;28;20042;-82
2022/06/19 09:01:15;;;;;;;23.95;6.63;;;;;;;28.71;41.56;95109.88;4993214;28;20519;-81
2022/06/19 09:07:07;;;;;;;25.40;6.32;;;;;;;28.86;40.71;95111.31;4993733;28;20073;-82
2022/06/19 09:09:50;;;;;;;26.58;7.10;;;;;;;29.17;38.46;95103.34;4991968;28;20500;-83
2022/06/19 09:12:48;;;;;;;25.27;6.82;;;;;;;29.06;38.25;95108.06;4992759;28;20049;-81
2022/06/19 09:15:23;;;;;;;19.70;6.35;;;;;;;29.51;39.75;95112.72;4968981;28;21183;-80
2022/06/19 09:17:52;;;;;;;20.35;5.85;;;;;;;29.61;38.28;95108.38;4991642;28;20034;-82
2022/06/19 09:20:27;;;;;;;23.45;6.45;;;;;;;29.85;38.99;95107.34;4989026;28;20042;-82
2022/06/19 09:23:05;;;;;;;28.13;7.43;;;;;;;29.72;37.97;95117.97;4993780;28;20038;-83
2022/06/19 09:25:44;;;;;;;18.83;7.03;;;;;;;29.67;37.72;95112.22;4987839;28;20042;-82
2022/06/19 09:28:13;;;;;;;22.92;7.30;;;;;;;29.76;37.40;95109.78;4993577;28;20116;-82
2022/06/19 09:30:47;;;;;;;22.25;7.65;;;;;;;29.59;38.22;95110.72;5004855;28;20476;-82
2022/06/19 09:33:33;;;;;;;31.02;7.43;;;;;;;29.52;41.21;95109.63;4987883;28;20038;-81
2022/06/19 09:36:11;;;;;;;21.55;6.60;;;;;;;29.65;39.16;95114.53;4990511;28;20069;-81
2022/06/19 09:38:43;;;;;;;25.10;7.15;;;;;;;29.94;36.80;95108.81;4992382;28;20636;-81
2022/06/19 09:41:17;;;;;;;22.27;6.60;;;;;;;30.38;36.67;95112.56;4987810;28;20043;-79
2022/06/19 09:44:06;;;;;;;27.48;7.88;;;;;;;30.47;36.48;95112.84;4979030;28;20046;-80
2022/06/19 09:46:47;;;;;;;21.88;7.03;;;;;;;30.32;37.00;95108.75;4985173;28;20045;-85
2022/06/19 09:49:27;;;;;;;24.60;7.30;;;;;;;30.44;36.40;95105.50;4990382;28;20408;-79
2022/06/19 09:52:25;;;;;;;25.27;6.93;;;;;;;30.41;38.63;95103.59;4983608;28;20055;-79
2022/06/19 09:55:13;;;;;;;22.50;7.10;;;;;;;30.36;37.17;95106.78;4982590;28;20058;-80
2022/06/19 09:57:47;;;;;;;25.30;7.30;;;;;;;30.37;38.43;95102.88;4990668;28;20113;-78
2022/06/19 10:00:23;;;;;;;20.77;8.18;;;;;;;30.30;39.25;95098.31;4989708;28;20511;-79
2022/06/19 10:03:10;;;;;;;26.73;7.85;;;;;;;30.62;39.02;95090.94;4991270;28;20501;-83
2022/06/19 10:05:42;;;;;;;23.88;6.85;;;;;;;30.96;36.91;95092.72;4988127;28;20050;-83
2022/06/19 10:08:28;;;;;;;28.42;8.15;;;;;;;30.97;36.91;95095.03;4991100;28;20049;-83
2022/06/19 10:10:59;;;;;;;37.35;8.73;;;;;;;31.00;36.15;95093.44;4995991;28;20046;-82
2022/06/19 10:13:36;;;;;;;24.90;8.35;;;;;;;30.98;38.96;95084.97;4984275;28;20072;-83
2022/06/19 10:16:04;;;;;;;25.17;8.48;;;;;;;31.29;36.49;95076.69;4991820;28;20065;-83
2022/06/19 10:18:37;;;;;;;24.98;8.27;;;;;;;31.35;36.34;95064.16;4990647;28;20077;-84
2022/06/19 10:24:24;;;;;;;18.90;8.43;;;;;;;31.65;35.81;95059.75;4994122;28;20078;-81
2022/06/19 10:27:19;;;;;;;26.55;8.38;;;;;;;31.92;35.97;95062.34;4993149;28;20097;-82
2022/06/19 10:29:57;;;;;;;22.83;8.15;;;;;;;32.11;35.27;95060.75;4982262;28;20070;-81
2022/06/19 10:32:28;;;;;;;28.52;8.93;;;;;;;32.33;35.10;95057.63;4989263;28;20038;-82
2022/06/19 10:35:12;;;;;;;21.08;8.80;;;;;;;32.57;35.00;95056.31;5001171;28;20057;-82
2022/06/19 10:38:02;;;;;;;23.80;8.30;;;;;;;32.78;34.07;95059.75;4991791;28;20097;-82
2022/06/19 10:40:35;;;;;;;20.50;8.93;;;;;;;33.32;33.00;95059.22;4992443;28;20061;-84
2022/06/19 10:43:17;;;;;;;25.75;8.73;;;;;;;33.55;32.45;95057.44;5004225;28;20043;-83
2022/06/19 10:45:47;;;;;;;22.02;9.35;;;;;;;33.62;33.89;95059.19;4993516;28;20038;-83
2022/06/19 10:48:39;;;;;;;26.05;9.00;;;;;;;33.84;35.00;95059.44;4993599;28;20039;-83
2022/06/19 10:51:24;;;;;;;26.85;9.45;;;;;;;34.56;31.44;95056.59;4994771;28;20042;-83
2022/06/19 10:54:23;;;;;;;23.15;8.80;;;;;;;34.87;31.49;95054.06;4993707;28;20480;-84
2022/06/19 10:57:10;;;;;;;25.50;9.10;;;;;;;34.79;30.61;95052.75;4994722;28;20066;-83
2022/06/19 10:59:36;;;;;;;22.40;9.10;;;;;;;35.33;31.77;95034.59;4996041;28;20097;-84
2022/06/19 11:05:42;;;;;;;20.00;9.02;;;;;;;35.07;29.58;95040.13;5014371;28;20026;-87
2022/06/19 11:08:08;;;;;;;23.83;9.45;;;;;;;36.51;27.80;95034.28;5011503;28;20271;-85
2022/06/19 11:10:42;;;;;;;25.08;9.57;;;;;;;36.49;29.02;95025.72;5016082;28;20332;-82
2022/06/19 11:13:08;;;;;;;24.38;8.63;;;;;;;36.04;30.22;95025.06;5015772;28;20049;-84
2022/06/19 11:15:43;;;;;;;35.95;9.48;;;;;;;36.11;31.04;95018.56;5015225;28;20038;-80
2022/06/19 11:18:25;;;;;;;22.83;9.77;;;;;;;36.37;30.95;95032.84;5022254;28;20034;-84
2022/06/19 11:20:53;;;;;;;20.55;9.60;;;;;;;36.32;29.12;95039.69;5023668;28;20045;-83
2022/06/19 11:23:27;;;;;;;19.92;9.18;;;;;;;36.32;29.86;95027.94;5015803;28;20033;-78
2022/06/19 11:26:14;;;;;;;17.58;9.48;;;;;;;36.29;28.57;95024.13;5015801;28;20056;-77
2022/06/19 11:28:42;;;;;;;21.15;9.75;;;;;;;36.61;27.82;95015.88;5020888;28;20040;-78
2022/06/19 11:31:13;;;;;;;25.70;9.15;;;;;;;36.95;27.86;95025.88;5015546;28;20034;-80
2022/06/19 11:33:40;;;;;;;21.00;8.52;;;;;;;36.65;28.84;95022.75;5005618;28;20061;-78
2022/06/19 11:36:12;;;;;;;22.08;9.18;;;;;;;37.12;28.92;95020.09;5017042;28;20030;-78
2022/06/19 11:38:49;;;;;;;20.17;9.10;;;;;;;36.84;28.04;95023.56;5016592;28;20035;-78
2022/06/19 11:41:21;;;;;;;22.33;9.00;;;;;;;35.44;29.03;95021.31;5014794;28;20085;-78
2022/06/19 11:44:00;;;;;;;23.23;9.80;;;;;;;36.07;28.72;95008.50;5017216;28;20041;-84
2022/06/19 11:46:26;;;;;;;25.98;9.30;;;;;;;36.87;28.12;95010.94;5016610;28;20027;-84
2022/06/19 11:48:53;;;;;;;21.50;9.30;;;;;;;36.61;28.18;95016.66;5017180;28;20065;-84
2022/06/19 11:51:22;;;;;;;19.27;9.65;;;;;;;36.70;27.22;95008.44;5017814;28;20053;-82
2022/06/19 11:53:54;;;;;;;21.83;9.50;;;;;;;37.30;28.94;95009.16;5016263;28;20038;-82